createdAt,value
2018-12-29T00:02:44.909Z,86.05
2018-12-29T00:05:55.216Z,86.21
2018-12-29T00:08:57.931Z,86.28
2018-12-29T00:12:08.216Z,86.25
2018-12-29T00:15:11.484Z,86.43
2018-12-29T00:18:21.782Z,86.30
2018-12-29T00:21:24.658Z,86.05
2018-12-29T00:24:27.621Z,86.13
2018-12-29T00:27:30.798Z,86.12
2018-12-29T00:30:41.127Z,86.17
2018-12-29T00:33:44.355Z,85.98
2018-12-29T00:36:47.522Z,86.00
2018-12-29T00:39:57.836Z,85.93
2018-12-29T00:43:01.220Z,86.09
2018-12-29T00:46:11.497Z,86.33
2018-12-29T00:49:14.362Z,86.63
2018-12-29T00:52:24.677Z,87.01
2018-12-29T00:55:27.373Z,86.49
2018-12-29T00:58:37.666Z,87.50
2018-12-29T01:01:40.991Z,87.85
2018-12-29T01:04:51.337Z,88.17
2018-12-29T01:07:54.256Z,88.04
2018-12-29T01:11:04.528Z,87.54
2018-12-29T01:14:07.867Z,87.26
2018-12-29T01:17:10.713Z,87.42
2018-12-29T01:20:01.966Z,87.87
2018-12-29T01:23:05.144Z,87.97
2018-12-29T01:26:15.426Z,88.10
2018-12-29T01:29:18.560Z,88.30
2018-12-29T01:32:28.870Z,87.58
2018-12-29T01:35:31.808Z,88.01
2018-12-29T01:38:42.068Z,88.11
2018-12-29T01:41:45.107Z,88.51
2018-12-29T01:44:48.823Z,88.80
2018-12-29T01:47:59.114Z,88.65
2018-12-29T01:51:02.441Z,88.49
2018-12-29T01:54:12.701Z,89.01
2018-12-29T01:57:15.421Z,88.92
2018-12-29T02:00:25.763Z,89.17
2018-12-29T02:03:28.798Z,89.47
2018-12-29T02:06:39.101Z,89.87
2018-12-29T02:09:41.673Z,89.88
2018-12-29T02:12:52.055Z,90.05
2018-12-29T02:15:55.292Z,90.26
2018-12-29T02:18:58.197Z,89.93
2018-12-29T02:22:08.456Z,90.06
2018-12-29T02:25:11.382Z,90.26
2018-12-29T02:28:21.678Z,89.73
2018-12-29T02:31:24.209Z,90.16
2018-12-29T02:34:27.225Z,90.13
2018-12-29T02:37:30.190Z,90.30
2018-12-29T02:40:40.478Z,90.49
2018-12-29T02:43:43.226Z,90.40
2018-12-29T02:46:53.498Z,89.83
2018-12-29T02:49:56.259Z,90.08
2018-12-29T02:53:06.557Z,89.71
2018-12-29T02:56:09.090Z,90.31
2018-12-29T02:59:19.349Z,90.50
2018-12-29T03:02:22.543Z,91.10
2018-12-29T03:05:32.813Z,91.79
2018-12-29T03:08:24.075Z,91.90
2018-12-29T03:11:34.336Z,91.17
2018-12-29T03:14:37.505Z,91.32
2018-12-29T03:17:47.765Z,91.13
2018-12-29T03:20:50.659Z,91.17
2018-12-29T03:24:00.939Z,91.18
2018-12-29T03:27:03.498Z,90.93
2018-12-29T03:30:13.769Z,90.68
2018-12-29T03:33:16.616Z,90.76
2018-12-29T03:36:26.882Z,90.79
2018-12-29T03:39:29.787Z,90.61
2018-12-29T03:42:40.037Z,90.77
2018-12-29T03:45:49.116Z,90.87
2018-12-29T03:48:54.810Z,91.58
2018-12-29T03:51:57.792Z,91.49
2018-12-29T03:55:08.099Z,91.91
2018-12-29T03:57:59.305Z,92.69
2018-12-29T04:01:09.581Z,92.71
2018-12-29T04:04:19.874Z,93.29
2018-12-29T04:07:22.894Z,93.69
2018-12-29T04:10:33.188Z,93.53
2018-12-29T04:13:36.048Z,94.14
2018-12-29T04:16:46.354Z,93.98
2018-12-29T04:19:49.573Z,94.54
2018-12-29T04:22:53.013Z,94.03
2018-12-29T04:25:55.506Z,94.23
2018-12-29T04:29:05.787Z,94.54
2018-12-29T04:32:08.729Z,94.41
2018-12-29T04:35:19.005Z,94.90
2018-12-29T04:38:22.446Z,95.20
2018-12-29T04:41:32.776Z,95.73
2018-12-29T04:44:36.190Z,95.57
2018-12-29T04:47:39.506Z,95.62
2018-12-29T04:50:49.748Z,95.32
2018-12-29T04:53:52.459Z,95.52
2018-12-29T04:57:02.769Z,95.82
2018-12-29T05:00:05.974Z,96.27
2018-12-29T05:03:16.248Z,96.75
2018-12-29T05:06:19.517Z,96.41
2018-12-29T05:09:29.765Z,96.46
2018-12-29T05:12:32.253Z,96.67
2018-12-29T05:15:42.497Z,97.16
2018-12-29T05:18:45.014Z,97.65
2018-12-29T05:21:47.493Z,97.89
2018-12-29T05:24:50.259Z,98.45
2018-12-29T05:28:00.556Z,98.00
2018-12-29T05:31:03.917Z,97.57
2018-12-29T05:34:14.195Z,97.84
2018-12-29T05:37:17.461Z,97.78
2018-12-29T05:40:27.734Z,97.69
2018-12-29T05:43:30.570Z,98.06
2018-12-29T05:46:40.861Z,97.98
2018-12-29T05:49:44.075Z,97.78
2018-12-29T05:52:54.371Z,97.57
2018-12-29T05:55:56.904Z,97.36
2018-12-29T05:59:07.229Z,97.72
2018-12-29T06:02:10.046Z,97.93
2018-12-29T06:05:13.197Z,97.75
2018-12-29T06:08:23.466Z,97.84
2018-12-29T06:11:26.380Z,97.94
2018-12-29T06:14:36.635Z,97.89
2018-12-29T06:17:39.956Z,98.32
2018-12-29T06:20:50.288Z,98.39
2018-12-29T06:23:53.155Z,97.75
2018-12-29T06:26:56.490Z,97.68
2018-12-29T06:30:06.889Z,98.27
2018-12-29T06:33:09.529Z,98.55
2018-12-29T06:36:19.796Z,98.53
2018-12-29T06:39:22.966Z,98.02
2018-12-29T06:42:33.246Z,98.25
2018-12-29T06:45:36.677Z,98.64
2018-12-29T06:48:47.016Z,98.80
2018-12-29T06:51:50.022Z,98.87
2018-12-29T06:55:00.339Z,98.60
2018-12-29T06:58:03.489Z,98.80
2018-12-29T07:01:06.496Z,98.15
2018-12-29T07:04:16.801Z,97.88
2018-12-29T07:07:20.338Z,98.34
2018-12-29T07:10:23.407Z,98.44
2018-12-29T07:13:33.690Z,98.91
2018-12-29T07:16:42.155Z,98.78
2018-12-29T07:19:48.914Z,98.37
2018-12-29T07:22:52.035Z,98.75
2018-12-29T07:25:55.240Z,98.94
2018-12-29T07:29:05.556Z,98.66
2018-12-29T07:32:08.339Z,98.87
2018-12-29T07:35:18.629Z,99.19
2018-12-29T07:38:22.065Z,99.33
2018-12-29T07:41:32.379Z,99.08
2018-12-29T07:44:35.616Z,98.99
2018-12-29T07:47:38.425Z,99.00
2018-12-29T07:50:48.697Z,98.61
2018-12-29T07:53:51.530Z,98.78
2018-12-29T07:57:01.798Z,98.94
2018-12-29T08:00:05.276Z,99.24
2018-12-29T08:03:15.552Z,99.19
2018-12-29T08:06:18.630Z,99.11
2018-12-29T08:09:28.908Z,99.34
2018-12-29T08:12:31.528Z,99.14
2018-12-29T08:15:41.827Z,98.47
2018-12-29T08:18:44.349Z,98.79
2018-12-29T08:21:54.640Z,99.11
2018-12-29T08:24:57.909Z,98.52
2018-12-29T08:28:08.196Z,98.73
2018-12-29T08:31:11.533Z,98.92
2018-12-29T08:34:14.238Z,98.85
2018-12-29T08:37:24.480Z,99.13
2018-12-29T08:40:27.770Z,98.74
2018-12-29T08:43:38.133Z,97.77
2018-12-29T08:46:40.868Z,98.30
2018-12-29T08:49:51.153Z,97.87
2018-12-29T08:52:54.031Z,97.76
2018-12-29T08:56:04.290Z,98.11
2018-12-29T08:59:06.730Z,97.44
2018-12-29T09:02:17.001Z,97.55
2018-12-29T09:05:19.505Z,98.02
2018-12-29T09:08:29.774Z,98.48
2018-12-29T09:11:32.666Z,98.43
2018-12-29T09:14:42.951Z,98.14
2018-12-29T09:17:45.852Z,97.90
2018-12-29T09:20:37.014Z,97.53
2018-12-29T09:23:40.372Z,97.45
2018-12-29T09:26:43.267Z,97.36
2018-12-29T09:29:46.314Z,97.49
2018-12-29T09:32:56.582Z,96.61
2018-12-29T09:35:59.157Z,97.05
2018-12-29T09:39:09.679Z,97.67
2018-12-29T09:42:12.752Z,97.78
2018-12-29T09:45:16.113Z,97.96
2018-12-29T09:48:26.387Z,97.52
2018-12-29T09:51:29.387Z,97.86
2018-12-29T09:54:39.665Z,97.34
2018-12-29T09:57:42.607Z,97.00
2018-12-29T10:00:52.854Z,96.78
2018-12-29T10:03:55.451Z,96.94
2018-12-29T10:07:05.735Z,95.90
2018-12-29T10:10:08.594Z,95.33
2018-12-29T10:13:18.286Z,95.22
2018-12-29T10:16:20.693Z,95.32
2018-12-29T10:19:31.009Z,95.38
2018-12-29T10:22:34.237Z,95.45
2018-12-29T10:25:37.075Z,94.72
2018-12-29T10:28:39.934Z,94.38
2018-12-29T10:31:42.718Z,93.28
2018-12-29T10:34:53.111Z,92.95
2018-12-29T10:37:56.453Z,92.91
2018-12-29T10:41:06.723Z,92.39
2018-12-29T10:44:10.187Z,92.28
2018-12-29T10:47:20.467Z,92.26
2018-12-29T10:50:23.780Z,92.41
2018-12-29T10:53:34.065Z,92.60
2018-12-29T10:56:36.821Z,92.13
2018-12-29T10:59:47.055Z,92.18
2018-12-29T11:02:50.259Z,91.64
2018-12-29T11:06:00.558Z,91.99
2018-12-29T11:09:04.889Z,91.62
2018-12-29T11:12:15.153Z,91.87
2018-12-29T11:15:17.823Z,91.96
2018-12-29T11:18:28.118Z,91.51
2018-12-29T11:21:31.527Z,91.61
2018-12-29T11:24:41.806Z,91.31
2018-12-29T11:27:45.123Z,91.28
2018-12-29T11:30:55.391Z,91.39
2018-12-29T11:33:58.965Z,91.48
2018-12-29T11:37:01.890Z,91.07
2018-12-29T11:40:04.856Z,90.63
2018-12-29T11:43:16.613Z,90.17
2018-12-29T11:46:20.109Z,90.57
2018-12-29T11:49:30.375Z,90.44
2018-12-29T11:52:33.114Z,90.29
2018-12-29T11:55:43.352Z,90.31
2018-12-29T11:58:46.738Z,90.67
2018-12-29T12:01:56.980Z,90.45
2018-12-29T12:05:00.176Z,90.58
2018-12-29T12:08:10.426Z,90.18
2018-12-29T12:11:13.619Z,89.84
2018-12-29T12:14:24.267Z,90.30
2018-12-29T12:17:26.918Z,90.66
2018-12-29T12:20:30.033Z,90.42
2018-12-29T12:23:40.341Z,90.73
2018-12-29T12:26:44.576Z,90.91
2018-12-29T12:29:47.315Z,90.10
2018-12-29T12:32:57.596Z,89.77
2018-12-29T12:36:00.082Z,89.36
2018-12-29T12:39:10.405Z,89.16
2018-12-29T12:42:13.825Z,90.18
2018-12-29T12:45:16.653Z,89.03
2018-12-29T12:48:27.700Z,89.34
2018-12-29T12:51:32.183Z,88.88
2018-12-29T12:54:34.889Z,88.43
2018-12-29T12:57:45.418Z,88.24
2018-12-29T13:00:50.274Z,88.74
2018-12-29T13:04:00.834Z,88.67
2018-12-29T13:07:03.595Z,88.46
2018-12-29T13:10:07.468Z,88.61
2018-12-29T13:13:18.031Z,88.72
2018-12-29T13:16:20.587Z,88.81
2018-12-29T13:19:30.880Z,88.99
2018-12-29T13:22:34.243Z,88.54
2018-12-29T13:25:44.522Z,88.92
2018-12-29T13:28:47.758Z,88.88
2018-12-29T13:31:58.063Z,88.48
2018-12-29T13:35:01.210Z,88.87
2018-12-29T13:38:11.473Z,87.96
2018-12-29T13:41:14.286Z,88.60
2018-12-29T13:44:24.605Z,88.62
2018-12-29T13:47:27.187Z,87.97
2018-12-29T13:50:30.084Z,87.67
2018-12-29T13:53:40.327Z,87.09
2018-12-29T13:56:43.216Z,87.23
2018-12-29T13:59:53.429Z,87.29
2018-12-29T14:02:56.767Z,87.25
2018-12-29T14:06:07.247Z,87.88
2018-12-29T14:09:09.829Z,87.87
2018-12-29T14:12:20.124Z,88.01
2018-12-29T14:15:22.999Z,88.74
2018-12-29T14:18:33.282Z,89.22
2018-12-29T14:21:36.663Z,89.10
2018-12-29T14:24:39.670Z,89.73
2018-12-29T14:27:42.331Z,89.99
2018-12-29T14:30:53.019Z,90.90
2018-12-29T14:33:56.324Z,91.13
2018-12-29T14:36:59.189Z,90.96
2018-12-29T14:40:09.460Z,91.08
2018-12-29T14:43:12.646Z,91.23
2018-12-29T14:46:22.941Z,90.99
2018-12-29T14:49:25.667Z,90.54
2018-12-29T14:52:35.971Z,90.75
2018-12-29T14:55:39.186Z,91.26
2018-12-29T14:58:49.476Z,92.15
2018-12-29T15:01:52.788Z,92.57
2018-12-29T15:05:03.152Z,93.10
2018-12-29T15:08:05.826Z,93.55
2018-12-29T15:11:16.516Z,94.07
2018-12-29T15:14:20.425Z,94.74
2018-12-29T15:17:31.048Z,95.63
2018-12-29T15:20:34.236Z,95.84
2018-12-29T15:23:37.444Z,95.30
2018-12-29T15:26:40.166Z,95.56
2018-12-29T15:29:43.627Z,95.56
2018-12-29T15:32:54.258Z,95.05
2018-12-29T15:35:57.622Z,95.88
2018-12-29T15:39:08.467Z,96.50
2018-12-29T15:42:11.720Z,97.23
2018-12-29T15:45:14.645Z,97.97
2018-12-29T15:48:17.616Z,98.58
2018-12-29T15:51:27.876Z,99.03
2018-12-29T15:54:30.603Z,99.54
2018-12-29T16:00:52.639Z,99.50
2018-12-29T16:04:02.924Z,99.79
2018-12-29T16:07:06.270Z,99.95
2018-12-29T16:10:09.998Z,99.86
2018-12-29T16:13:20.268Z,100.00
2018-12-29T16:16:23.570Z,100.00
2018-12-29T16:19:33.840Z,100.00
2018-12-29T16:22:36.377Z,100.00
2018-12-29T16:25:46.691Z,100.00
2018-12-29T16:28:49.368Z,100.00
2018-12-29T16:31:59.642Z,100.00
2018-12-29T16:35:02.196Z,100.00
2018-12-29T16:38:12.478Z,100.00
2018-12-29T16:41:15.433Z,100.00
2018-12-29T16:44:25.734Z,100.00
2018-12-29T16:47:30.102Z,100.00
2018-12-29T16:50:40.424Z,100.00
2018-12-29T16:53:43.124Z,100.00
2018-12-29T16:56:53.414Z,100.00
2018-12-29T16:59:57.838Z,100.00
2018-12-29T17:03:08.118Z,100.00
2018-12-29T17:06:10.795Z,100.00
2018-12-29T17:09:13.686Z,100.00
2018-12-29T17:12:24.002Z,100.00
2018-12-29T17:15:26.863Z,100.00
2018-12-29T17:18:30.061Z,100.00
2018-12-29T17:21:40.846Z,100.00
2018-12-29T17:24:43.777Z,100.00
2018-12-29T17:27:54.086Z,100.00
2018-12-29T17:30:57.123Z,100.00
2018-12-29T17:34:07.411Z,100.00
2018-12-29T17:37:10.248Z,100.00
2018-12-29T17:40:20.799Z,100.00
2018-12-29T17:43:23.285Z,100.00
2018-12-29T17:46:33.596Z,100.00
2018-12-29T17:49:38.788Z,100.00
2018-12-29T17:52:49.080Z,100.00
2018-12-29T17:55:51.668Z,100.00
2018-12-29T17:58:54.463Z,100.00
2018-12-29T18:02:04.768Z,100.00
2018-12-29T18:05:09.417Z,100.00
2018-12-29T18:08:19.690Z,100.00
2018-12-29T18:11:23.027Z,100.00
2018-12-29T18:14:33.299Z,100.00
2018-12-29T18:17:35.966Z,100.00
2018-12-29T18:20:46.253Z,100.00
2018-12-29T18:23:48.863Z,100.00
2018-12-29T18:26:59.454Z,100.00
2018-12-29T18:30:02.302Z,100.00
2018-12-29T18:33:12.586Z,100.00
2018-12-29T18:36:16.032Z,100.00
2018-12-29T18:39:26.666Z,100.00
2018-12-29T18:42:17.924Z,100.00
2018-12-29T18:45:28.200Z,100.00
2018-12-29T18:48:31.268Z,100.00
2018-12-29T18:51:41.549Z,100.00
2018-12-29T18:54:44.779Z,100.00
2018-12-29T18:57:47.642Z,100.00
2018-12-29T19:00:57.921Z,100.00
2018-12-29T19:04:00.775Z,100.00
2018-12-29T19:07:11.097Z,100.00
2018-12-29T19:10:14.533Z,100.00
2018-12-29T19:13:17.377Z,100.00
2018-12-29T19:16:28.010Z,100.00
2018-12-29T19:19:31.009Z,100.00
2018-12-29T19:22:41.274Z,100.00
2018-12-29T19:25:44.618Z,100.00
2018-12-29T19:28:48.166Z,100.00
2018-12-29T19:31:52.539Z,100.00
2018-12-29T19:35:03.168Z,100.00
2018-12-29T19:38:07.801Z,100.00
2018-12-29T19:41:18.361Z,100.00
2018-12-29T19:44:23.456Z,100.00
2018-12-29T19:47:34.015Z,100.00
2018-12-29T19:50:38.271Z,100.00
2018-12-29T19:53:41.120Z,100.00
2018-12-29T19:56:51.412Z,99.70
2018-12-29T19:59:55.607Z,99.49
2018-12-29T20:02:58.573Z,99.51
2018-12-29T20:06:11.285Z,98.79
2018-12-29T20:09:13.464Z,98.43
2018-12-29T20:12:23.814Z,98.76
2018-12-29T20:15:26.431Z,98.36
2018-12-29T20:18:36.746Z,98.50
2018-12-29T20:21:39.996Z,98.25
2018-12-29T20:24:42.778Z,98.07
2018-12-29T20:27:45.531Z,97.54
2018-12-29T20:30:48.692Z,97.61
2018-12-29T20:33:58.985Z,97.12
2018-12-29T20:37:01.755Z,96.18
2018-12-29T20:40:12.051Z,95.07
2018-12-29T20:43:15.165Z,94.40
2018-12-29T20:46:25.450Z,93.63
2018-12-29T20:49:29.564Z,92.52
2018-12-29T20:52:39.931Z,92.24
2018-12-29T20:55:42.657Z,89.41
2018-12-29T20:58:53.007Z,88.28
2018-12-29T21:01:55.617Z,84.97
2018-12-29T21:04:58.647Z,84.30
2018-12-29T21:08:09.308Z,84.61
2018-12-29T21:11:12.662Z,84.75
2018-12-29T21:14:22.976Z,86.05
2018-12-29T21:17:25.815Z,86.75
2018-12-29T21:20:28.826Z,87.61
2018-12-29T21:23:39.134Z,87.48
2018-12-29T21:26:41.930Z,87.16
2018-12-29T21:29:52.648Z,87.30
2018-12-29T21:32:55.439Z,85.90
2018-12-29T21:35:58.334Z,84.88
2018-12-29T21:39:08.694Z,83.37
2018-12-29T21:42:11.868Z,81.43
2018-12-29T21:45:22.134Z,80.36
2018-12-29T21:48:24.894Z,78.34
2018-12-29T21:51:27.579Z,77.20
2018-12-29T21:54:30.431Z,75.88
2018-12-29T21:57:40.712Z,75.35
2018-12-29T22:00:43.741Z,74.96
2018-12-29T22:03:34.990Z,75.12
2018-12-29T22:06:37.668Z,73.35
2018-12-29T22:09:48.051Z,73.38
2018-12-29T22:12:51.187Z,73.57
2018-12-29T22:16:01.507Z,73.41
2018-12-29T22:19:03.969Z,73.86
2018-12-29T22:22:14.264Z,74.19
2018-12-29T22:25:18.477Z,73.53
2018-12-29T22:28:21.047Z,73.92
2018-12-29T22:31:31.341Z,74.19
2018-12-29T22:34:33.778Z,74.07
2018-12-29T22:37:25.014Z,74.88
2018-12-29T22:40:15.359Z,73.94
2018-12-29T22:43:05.108Z,73.78
2018-12-29T22:45:55.375Z,74.04
2018-12-29T22:48:44.891Z,73.58
2018-12-29T22:51:35.066Z,73.71
2018-12-29T22:54:25.515Z,74.05
2018-12-29T22:57:15.108Z,74.48
2018-12-29T23:00:07.861Z,74.87
2018-12-29T23:02:58.270Z,75.23
2018-12-29T23:05:48.561Z,75.29
2018-12-29T23:08:38.687Z,75.16
2018-12-29T23:11:29.193Z,74.83
2018-12-29T23:14:18.717Z,74.87
2018-12-29T23:17:09.074Z,74.90
2018-12-29T23:19:59.169Z,75.12
2018-12-29T23:22:49.576Z,74.70
2018-12-29T23:25:39.387Z,75.35
2018-12-29T23:28:29.543Z,75.18
2018-12-29T23:31:20.147Z,75.44
2018-12-29T23:34:10.384Z,75.03
2018-12-29T23:37:00.340Z,75.13
2018-12-29T23:39:50.859Z,74.98
2018-12-29T23:42:41.491Z,75.22
2018-12-29T23:45:31.901Z,75.58
2018-12-29T23:48:21.719Z,75.73
2018-12-29T23:51:12.204Z,75.86
2018-12-29T23:54:02.195Z,75.69
2018-12-29T23:56:53.068Z,75.26
2018-12-29T23:59:43.321Z,75.98
